sensor_id;sensor_type;location;lat;lon;timestamp;temperature;humidity
16392;DHT22;8305;-33.882;151.134;2023-06-14T00:01:59;15.30;99.90
16392;DHT22;8305;-33.882;151.134;2023-06-14T00:04:32;15.30;99.90
16392;DHT22;8305;-33.882;151.134;2023-06-14T00:07:07;15.40;99.90
16392;DHT22;8305;-33.882;151.134;2023-06-14T00:09:41;15.40;99.90
16392;DHT22;8305;-33.882;151.134;2023-06-14T00:12:13;15.50;99.90
16392;DHT22;8305;-33.882;151.134;2023-06-14T00:14:44;15.50;99.90
16392;DHT22;8305;-33.882;151.134;2023-06-14T00:17:15;15.60;99.90
16392;DHT22;8305;-33.882;151.134;2023-06-14T00:19:48;15.60;99.90
16392;DHT22;8305;-33.882;151.134;2023-06-14T00:22:19;15.70;99.90
16392;DHT22;8305;-33.882;151.134;2023-06-14T00:24:52;15.80;99.90
16392;DHT22;8305;-33.882;151.134;2023-06-14T00:27:23;15.80;99.90
16392;DHT22;8305;-33.882;151.134;2023-06-14T00:29:54;15.80;99.90
16392;DHT22;8305;-33.882;151.134;2023-06-14T00:32:26;15.80;99.90
16392;DHT22;8305;-33.882;151.134;2023-06-14T00:34:59;15.90;99.90
16392;DHT22;8305;-33.882;151.134;2023-06-14T00:37:30;15.90;99.90
16392;DHT22;8305;-33.882;151.134;2023-06-14T00:40:01;16.00;99.90
16392;DHT22;8305;-33.882;151.134;2023-06-14T00:42:33;16.20;99.90
16392;DHT22;8305;-33.882;151.134;2023-06-14T00:45:04;16.30;99.90
16392;DHT22;8305;-33.882;151.134;2023-06-14T00:47:36;16.30;99.90
16392;DHT22;8305;-33.882;151.134;2023-06-14T00:50:11;16.30;99.90
16392;DHT22;8305;-33.882;151.134;2023-06-14T00:52:43;16.30;99.90
16392;DHT22;8305;-33.882;151.134;2023-06-14T00:55:14;16.40;99.90
16392;DHT22;8305;-33.882;151.134;2023-06-14T00:57:45;16.40;99.90
16392;DHT22;8305;-33.882;151.134;2023-06-14T01:00:17;16.40;99.90
16392;DHT22;8305;-33.882;151.134;2023-06-14T01:02:48;16.50;99.90
16392;DHT22;8305;-33.882;151.134;2023-06-14T01:05:22;16.60;99.90
16392;DHT22;8305;-33.882;151.134;2023-06-14T01:08:04;16.60;99.90
16392;DHT22;8305;-33.882;151.134;2023-06-14T01:10:44;16.70;99.90
16392;DHT22;8305;-33.882;151.134;2023-06-14T01:13:23;16.70;99.90
16392;DHT22;8305;-33.882;151.134;2023-06-14T01:15:56;16.80;99.90
16392;DHT22;8305;-33.882;151.134;2023-06-14T01:18:29;16.90;99.90
16392;DHT22;8305;-33.882;151.134;2023-06-14T01:21:02;16.90;99.90
16392;DHT22;8305;-33.882;151.134;2023-06-14T01:23:36;17.00;99.90
16392;DHT22;8305;-33.882;151.134;2023-06-14T01:26:07;17.00;99.90
16392;DHT22;8305;-33.882;151.134;2023-06-14T01:28:38;17.00;99.90
16392;DHT22;8305;-33.882;151.134;2023-06-14T01:31:10;17.00;99.90
16392;DHT22;8305;-33.882;151.134;2023-06-14T01:33:45;17.10;99.90
16392;DHT22;8305;-33.882;151.134;2023-06-14T01:36:17;17.20;99.90
16392;DHT22;8305;-33.882;151.134;2023-06-14T01:38:51;17.30;99.90
16392;DHT22;8305;-33.882;151.134;2023-06-14T01:41:24;17.40;99.90
16392;DHT22;8305;-33.882;151.134;2023-06-14T01:43:56;17.50;99.90
16392;DHT22;8305;-33.882;151.134;2023-06-14T01:46:27;17.50;99.90
16392;DHT22;8305;-33.882;151.134;2023-06-14T01:48:59;17.60;99.90
16392;DHT22;8305;-33.882;151.134;2023-06-14T01:51:30;17.70;99.90
16392;DHT22;8305;-33.882;151.134;2023-06-14T01:54:03;17.80;99.90
16392;DHT22;8305;-33.882;151.134;2023-06-14T01:56:34;17.80;99.90
16392;DHT22;8305;-33.882;151.134;2023-06-14T01:59:05;17.60;99.90
16392;DHT22;8305;-33.882;151.134;2023-06-14T02:01:37;17.60;99.90
16392;DHT22;8305;-33.882;151.134;2023-06-14T02:04:08;17.70;99.90
16392;DHT22;8305;-33.882;151.134;2023-06-14T02:06:39;17.80;99.90
16392;DHT22;8305;-33.882;151.134;2023-06-14T02:09:12;17.90;99.90
16392;DHT22;8305;-33.882;151.134;2023-06-14T02:11:43;17.90;99.90
16392;DHT22;8305;-33.882;151.134;2023-06-14T02:14:14;17.90;99.90
16392;DHT22;8305;-33.882;151.134;2023-06-14T02:16:46;17.90;99.90
16392;DHT22;8305;-33.882;151.134;2023-06-14T02:19:19;17.90;99.90
16392;DHT22;8305;-33.882;151.134;2023-06-14T02:21:50;18.00;99.90
16392;DHT22;8305;-33.882;151.134;2023-06-14T02:24:24;17.90;99.90
16392;DHT22;8305;-33.882;151.134;2023-06-14T02:26:55;17.80;99.90
16392;DHT22;8305;-33.882;151.134;2023-06-14T02:29:26;17.80;99.90
16392;DHT22;8305;-33.882;151.134;2023-06-14T02:31:57;17.80;99.90
16392;DHT22;8305;-33.882;151.134;2023-06-14T02:34:29;17.70;99.90
16392;DHT22;8305;-33.882;151.134;2023-06-14T02:37:00;17.70;99.90
16392;DHT22;8305;-33.882;151.134;2023-06-14T02:39:34;17.80;99.90
16392;DHT22;8305;-33.882;151.134;2023-06-14T02:42:06;17.90;99.90
16392;DHT22;8305;-33.882;151.134;2023-06-14T02:44:38;17.90;99.90
16392;DHT22;8305;-33.882;151.134;2023-06-14T02:47:09;17.90;99.90
16392;DHT22;8305;-33.882;151.134;2023-06-14T02:49:40;17.90;99.90
16392;DHT22;8305;-33.882;151.134;2023-06-14T02:52:11;18.00;99.90
16392;DHT22;8305;-33.882;151.134;2023-06-14T02:54:44;18.10;99.90
16392;DHT22;8305;-33.882;151.134;2023-06-14T02:57:16;18.20;99.90
16392;DHT22;8305;-33.882;151.134;2023-06-14T02:59:47;18.20;99.90
16392;DHT22;8305;-33.882;151.134;2023-06-14T03:02:18;18.30;99.90
16392;DHT22;8305;-33.882;151.134;2023-06-14T03:04:49;18.30;99.90
16392;DHT22;8305;-33.882;151.134;2023-06-14T03:07:20;18.40;99.90
16392;DHT22;8305;-33.882;151.134;2023-06-14T03:09:55;18.50;99.90
16392;DHT22;8305;-33.882;151.134;2023-06-14T03:12:26;18.40;99.90
16392;DHT22;8305;-33.882;151.134;2023-06-14T03:14:57;18.30;99.90
16392;DHT22;8305;-33.882;151.134;2023-06-14T03:17:29;18.20;99.90
16392;DHT22;8305;-33.882;151.134;2023-06-14T03:20:01;18.20;99.90
16392;DHT22;8305;-33.882;151.134;2023-06-14T03:22:33;18.20;99.90
16392;DHT22;8305;-33.882;151.134;2023-06-14T03:25:08;18.30;99.90
16392;DHT22;8305;-33.882;151.134;2023-06-14T03:27:39;18.30;99.90
16392;DHT22;8305;-33.882;151.134;2023-06-14T03:30:11;18.30;99.90
16392;DHT22;8305;-33.882;151.134;2023-06-14T03:32:42;18.30;99.90
16392;DHT22;8305;-33.882;151.134;2023-06-14T03:35:13;18.30;99.90
16392;DHT22;8305;-33.882;151.134;2023-06-14T03:37:46;18.30;99.90
16392;DHT22;8305;-33.882;151.134;2023-06-14T03:40:20;18.20;99.90
16392;DHT22;8305;-33.882;151.134;2023-06-14T03:42:54;18.30;99.90
16392;DHT22;8305;-33.882;151.134;2023-06-14T03:45:25;18.40;99.90
16392;DHT22;8305;-33.882;151.134;2023-06-14T03:47:57;18.50;99.90
16392;DHT22;8305;-33.882;151.134;2023-06-14T03:50:28;18.50;99.90
16392;DHT22;8305;-33.882;151.134;2023-06-14T03:53:00;18.60;99.90
16392;DHT22;8305;-33.882;151.134;2023-06-14T03:55:33;18.50;99.90
16392;DHT22;8305;-33.882;151.134;2023-06-14T03:58:05;18.50;99.90
16392;DHT22;8305;-33.882;151.134;2023-06-14T04:00:37;18.40;99.90
16392;DHT22;8305;-33.882;151.134;2023-06-14T04:03:08;18.50;99.90
16392;DHT22;8305;-33.882;151.134;2023-06-14T04:05:41;18.60;99.90
16392;DHT22;8305;-33.882;151.134;2023-06-14T04:08:12;18.60;99.90
16392;DHT22;8305;-33.882;151.134;2023-06-14T04:10:46;18.60;99.90
16392;DHT22;8305;-33.882;151.134;2023-06-14T04:13:17;18.60;99.90
16392;DHT22;8305;-33.882;151.134;2023-06-14T04:15:48;18.50;99.90
16392;DHT22;8305;-33.882;151.134;2023-06-14T04:18:19;18.50;99.90
16392;DHT22;8305;-33.882;151.134;2023-06-14T04:20:51;18.60;99.90
16392;DHT22;8305;-33.882;151.134;2023-06-14T04:23:24;18.60;99.90
16392;DHT22;8305;-33.882;151.134;2023-06-14T04:25:58;18.50;99.90
16392;DHT22;8305;-33.882;151.134;2023-06-14T04:28:30;18.50;99.90
16392;DHT22;8305;-33.882;151.134;2023-06-14T04:31:05;18.40;99.90
16392;DHT22;8305;-33.882;151.134;2023-06-14T04:33:37;18.40;99.90
16392;DHT22;8305;-33.882;151.134;2023-06-14T04:36:11;18.40;99.90
16392;DHT22;8305;-33.882;151.134;2023-06-14T04:38:45;18.40;99.90
16392;DHT22;8305;-33.882;151.134;2023-06-14T04:41:19;18.40;99.90
16392;DHT22;8305;-33.882;151.134;2023-06-14T04:43:50;18.40;99.90
16392;DHT22;8305;-33.882;151.134;2023-06-14T04:46:22;18.40;99.90
16392;DHT22;8305;-33.882;151.134;2023-06-14T04:48:53;18.50;99.90
16392;DHT22;8305;-33.882;151.134;2023-06-14T04:51:24;18.40;99.90
16392;DHT22;8305;-33.882;151.134;2023-06-14T04:53:58;18.50;99.90
16392;DHT22;8305;-33.882;151.134;2023-06-14T04:56:31;18.50;99.90
16392;DHT22;8305;-33.882;151.134;2023-06-14T04:59:02;18.50;99.90
16392;DHT22;8305;-33.882;151.134;2023-06-14T05:01:34;18.50;99.90
16392;DHT22;8305;-33.882;151.134;2023-06-14T05:04:05;18.50;99.90
16392;DHT22;8305;-33.882;151.134;2023-06-14T05:06:36;18.50;99.90
16392;DHT22;8305;-33.882;151.134;2023-06-14T05:09:07;18.40;99.90
16392;DHT22;8305;-33.882;151.134;2023-06-14T05:11:41;18.40;99.90
16392;DHT22;8305;-33.882;151.134;2023-06-14T05:14:12;18.30;99.90
16392;DHT22;8305;-33.882;151.134;2023-06-14T05:16:43;18.30;99.90
16392;DHT22;8305;-33.882;151.134;2023-06-14T05:19:16;18.30;99.90
16392;DHT22;8305;-33.882;151.134;2023-06-14T05:21:48;18.30;99.90
16392;DHT22;8305;-33.882;151.134;2023-06-14T05:24:20;18.30;99.90
16392;DHT22;8305;-33.882;151.134;2023-06-14T05:26:53;18.20;99.90
16392;DHT22;8305;-33.882;151.134;2023-06-14T05:29:24;18.20;99.90
16392;DHT22;8305;-33.882;151.134;2023-06-14T05:31:56;18.20;99.90
16392;DHT22;8305;-33.882;151.134;2023-06-14T05:34:27;18.20;99.90
16392;DHT22;8305;-33.882;151.134;2023-06-14T05:36:58;18.10;99.90
16392;DHT22;8305;-33.882;151.134;2023-06-14T05:39:29;18.00;99.90
16392;DHT22;8305;-33.882;151.134;2023-06-14T05:42:02;18.00;99.90
16392;DHT22;8305;-33.882;151.134;2023-06-14T05:44:34;18.00;99.90
16392;DHT22;8305;-33.882;151.134;2023-06-14T05:47:05;17.90;99.90
16392;DHT22;8305;-33.882;151.134;2023-06-14T05:49:36;17.90;99.90
16392;DHT22;8305;-33.882;151.134;2023-06-14T05:52:08;17.80;99.90
16392;DHT22;8305;-33.882;151.134;2023-06-14T05:54:40;17.80;99.90
16392;DHT22;8305;-33.882;151.134;2023-06-14T05:57:14;17.70;99.90
16392;DHT22;8305;-33.882;151.134;2023-06-14T05:59:45;17.70;99.90
16392;DHT22;8305;-33.882;151.134;2023-06-14T06:02:16;17.70;99.90
16392;DHT22;8305;-33.882;151.134;2023-06-14T06:04:47;17.60;99.90
16392;DHT22;8305;-33.882;151.134;2023-06-14T06:07:18;17.60;99.90
16392;DHT22;8305;-33.882;151.134;2023-06-14T06:09:50;17.60;99.90
16392;DHT22;8305;-33.882;151.134;2023-06-14T06:12:23;17.50;99.90
16392;DHT22;8305;-33.882;151.134;2023-06-14T06:14:54;17.50;99.90
16392;DHT22;8305;-33.882;151.134;2023-06-14T06:17:26;17.40;99.90
16392;DHT22;8305;-33.882;151.134;2023-06-14T06:19:57;17.30;99.90
16392;DHT22;8305;-33.882;151.134;2023-06-14T06:22:28;17.30;99.90
16392;DHT22;8305;-33.882;151.134;2023-06-14T06:24:59;17.20;99.90
16392;DHT22;8305;-33.882;151.134;2023-06-14T06:27:32;17.10;99.90
16392;DHT22;8305;-33.882;151.134;2023-06-14T06:30:04;17.00;99.90
16392;DHT22;8305;-33.882;151.134;2023-06-14T06:32:35;17.00;99.90
16392;DHT22;8305;-33.882;151.134;2023-06-14T06:35:07;16.90;99.90
16392;DHT22;8305;-33.882;151.134;2023-06-14T06:37:38;16.90;99.90
16392;DHT22;8305;-33.882;151.134;2023-06-14T06:40:10;16.80;99.90
16392;DHT22;8305;-33.882;151.134;2023-06-14T06:42:43;16.70;99.90
16392;DHT22;8305;-33.882;151.134;2023-06-14T06:45:14;16.60;99.90
16392;DHT22;8305;-33.882;151.134;2023-06-14T06:47:45;16.50;99.90
16392;DHT22;8305;-33.882;151.134;2023-06-14T06:50:17;16.40;99.90
16392;DHT22;8305;-33.882;151.134;2023-06-14T06:52:51;16.40;99.90
16392;DHT22;8305;-33.882;151.134;2023-06-14T06:55:22;16.30;99.90
16392;DHT22;8305;-33.882;151.134;2023-06-14T06:57:55;16.30;99.90
16392;DHT22;8305;-33.882;151.134;2023-06-14T07:00:27;16.20;99.90
16392;DHT22;8305;-33.882;151.134;2023-06-14T07:02:58;16.10;99.90
16392;DHT22;8305;-33.882;151.134;2023-06-14T07:05:31;16.00;99.90
16392;DHT22;8305;-33.882;151.134;2023-06-14T07:08:03;16.00;99.90
16392;DHT22;8305;-33.882;151.134;2023-06-14T07:10:34;15.90;99.90
16392;DHT22;8305;-33.882;151.134;2023-06-14T07:13:07;15.90;99.90
16392;DHT22;8305;-33.882;151.134;2023-06-14T07:15:38;15.80;99.90
16392;DHT22;8305;-33.882;151.134;2023-06-14T07:18:10;15.70;99.90
16392;DHT22;8305;-33.882;151.134;2023-06-14T07:20:41;15.70;99.90
16392;DHT22;8305;-33.882;151.134;2023-06-14T07:23:12;15.60;99.90
16392;DHT22;8305;-33.882;151.134;2023-06-14T07:25:43;15.60;99.90
16392;DHT22;8305;-33.882;151.134;2023-06-14T07:28:16;15.50;99.90
16392;DHT22;8305;-33.882;151.134;2023-06-14T07:30:47;15.50;99.90
16392;DHT22;8305;-33.882;151.134;2023-06-14T07:33:19;15.40;99.90
16392;DHT22;8305;-33.882;151.134;2023-06-14T07:35:50;15.40;99.90
16392;DHT22;8305;-33.882;151.134;2023-06-14T07:38:21;15.30;99.90
16392;DHT22;8305;-33.882;151.134;2023-06-14T07:40:53;15.30;99.90
16392;DHT22;8305;-33.882;151.134;2023-06-14T07:43:25;15.30;99.90
16392;DHT22;8305;-33.882;151.134;2023-06-14T07:45:56;15.20;99.90
16392;DHT22;8305;-33.882;151.134;2023-06-14T07:48:27;15.20;99.90
16392;DHT22;8305;-33.882;151.134;2023-06-14T07:50:58;15.20;99.90
16392;DHT22;8305;-33.882;151.134;2023-06-14T07:53:29;15.10;99.90
16392;DHT22;8305;-33.882;151.134;2023-06-14T07:56:00;15.10;99.90
16392;DHT22;8305;-33.882;151.134;2023-06-14T07:58:33;15.00;99.90
16392;DHT22;8305;-33.882;151.134;2023-06-14T08:01:03;15.00;99.90
16392;DHT22;8305;-33.882;151.134;2023-06-14T08:03:35;15.00;99.90
16392;DHT22;8305;-33.882;151.134;2023-06-14T08:06:07;14.90;99.90
16392;DHT22;8305;-33.882;151.134;2023-06-14T08:08:38;14.90;99.90
16392;DHT22;8305;-33.882;151.134;2023-06-14T08:11:09;14.90;99.90
16392;DHT22;8305;-33.882;151.134;2023-06-14T08:13:42;14.90;99.90
16392;DHT22;8305;-33.882;151.134;2023-06-14T08:16:12;14.90;99.90
16392;DHT22;8305;-33.882;151.134;2023-06-14T08:18:43;14.80;99.90
16392;DHT22;8305;-33.882;151.134;2023-06-14T08:21:14;14.80;99.90
16392;DHT22;8305;-33.882;151.134;2023-06-14T08:23:45;14.80;99.90
16392;DHT22;8305;-33.882;151.134;2023-06-14T08:26:16;14.80;99.90
16392;DHT22;8305;-33.882;151.134;2023-06-14T08:28:49;14.70;99.90
16392;DHT22;8305;-33.882;151.134;2023-06-14T08:31:20;14.60;99.90
16392;DHT22;8305;-33.882;151.134;2023-06-14T08:33:51;14.60;99.90
16392;DHT22;8305;-33.882;151.134;2023-06-14T08:36:22;14.50;99.90
16392;DHT22;8305;-33.882;151.134;2023-06-14T08:38:53;14.50;99.90
16392;DHT22;8305;-33.882;151.134;2023-06-14T08:41:24;14.40;99.90
16392;DHT22;8305;-33.882;151.134;2023-06-14T08:43:59;14.40;99.90
16392;DHT22;8305;-33.882;151.134;2023-06-14T08:46:32;14.30;99.90
16392;DHT22;8305;-33.882;151.134;2023-06-14T08:49:04;14.30;99.90
16392;DHT22;8305;-33.882;151.134;2023-06-14T08:51:36;14.30;99.90
16392;DHT22;8305;-33.882;151.134;2023-06-14T08:54:08;14.20;99.90
16392;DHT22;8305;-33.882;151.134;2023-06-14T08:56:41;14.20;99.90
16392;DHT22;8305;-33.882;151.134;2023-06-14T08:59:14;14.20;99.90
16392;DHT22;8305;-33.882;151.134;2023-06-14T09:01:46;14.20;99.90
16392;DHT22;8305;-33.882;151.134;2023-06-14T09:04:17;14.10;99.90
16392;DHT22;8305;-33.882;151.134;2023-06-14T09:06:49;14.10;99.90
16392;DHT22;8305;-33.882;151.134;2023-06-14T09:09:22;14.10;99.90
16392;DHT22;8305;-33.882;151.134;2023-06-14T09:11:54;14.00;99.90
16392;DHT22;8305;-33.882;151.134;2023-06-14T09:14:27;14.00;99.90
16392;DHT22;8305;-33.882;151.134;2023-06-14T09:16:58;14.00;99.90
16392;DHT22;8305;-33.882;151.134;2023-06-14T09:19:30;14.00;99.90
16392;DHT22;8305;-33.882;151.134;2023-06-14T09:22:00;13.90;99.90
16392;DHT22;8305;-33.882;151.134;2023-06-14T09:24:31;13.90;99.90
16392;DHT22;8305;-33.882;151.134;2023-06-14T09:27:03;13.90;99.90
16392;DHT22;8305;-33.882;151.134;2023-06-14T09:29:37;13.80;99.90
16392;DHT22;8305;-33.882;151.134;2023-06-14T09:32:09;13.80;99.90
16392;DHT22;8305;-33.882;151.134;2023-06-14T09:34:40;13.80;99.90
16392;DHT22;8305;-33.882;151.134;2023-06-14T09:37:10;13.70;99.90
16392;DHT22;8305;-33.882;151.134;2023-06-14T09:39:50;13.70;99.90
16392;DHT22;8305;-33.882;151.134;2023-06-14T09:42:21;13.70;99.90
16392;DHT22;8305;-33.882;151.134;2023-06-14T09:44:56;13.70;99.90
16392;DHT22;8305;-33.882;151.134;2023-06-14T09:47:27;13.70;99.90
16392;DHT22;8305;-33.882;151.134;2023-06-14T09:49:58;13.60;99.90
16392;DHT22;8305;-33.882;151.134;2023-06-14T09:52:29;13.60;99.90
16392;DHT22;8305;-33.882;151.134;2023-06-14T09:55:00;13.60;99.90
16392;DHT22;8305;-33.882;151.134;2023-06-14T09:57:37;13.60;99.90
16392;DHT22;8305;-33.882;151.134;2023-06-14T10:00:12;13.60;99.90
16392;DHT22;8305;-33.882;151.134;2023-06-14T10:02:46;13.60;99.90
16392;DHT22;8305;-33.882;151.134;2023-06-14T10:05:21;13.50;99.90
16392;DHT22;8305;-33.882;151.134;2023-06-14T10:07:56;13.50;99.90
16392;DHT22;8305;-33.882;151.134;2023-06-14T10:10:29;13.50;99.90
16392;DHT22;8305;-33.882;151.134;2023-06-14T10:13:01;13.50;99.90
16392;DHT22;8305;-33.882;151.134;2023-06-14T10:15:38;13.50;99.90
16392;DHT22;8305;-33.882;151.134;2023-06-14T10:18:14;13.40;99.90
16392;DHT22;8305;-33.882;151.134;2023-06-14T10:21:01;13.40;99.90
16392;DHT22;8305;-33.882;151.134;2023-06-14T10:23:35;13.30;99.90
16392;DHT22;8305;-33.882;151.134;2023-06-14T10:26:07;13.30;99.90
16392;DHT22;8305;-33.882;151.134;2023-06-14T10:28:39;13.30;99.90
16392;DHT22;8305;-33.882;151.134;2023-06-14T10:31:12;13.20;99.90
16392;DHT22;8305;-33.882;151.134;2023-06-14T10:33:50;13.20;99.90
16392;DHT22;8305;-33.882;151.134;2023-06-14T10:36:27;13.20;99.90
16392;DHT22;8305;-33.882;151.134;2023-06-14T10:39:04;13.20;99.90
16392;DHT22;8305;-33.882;151.134;2023-06-14T10:41:37;13.10;99.90
16392;DHT22;8305;-33.882;151.134;2023-06-14T10:44:33;13.10;99.90
16392;DHT22;8305;-33.882;151.134;2023-06-14T10:47:09;13.10;99.90
16392;DHT22;8305;-33.882;151.134;2023-06-14T10:49:44;13.10;99.90
16392;DHT22;8305;-33.882;151.134;2023-06-14T10:52:17;13.10;99.90
16392;DHT22;8305;-33.882;151.134;2023-06-14T10:55:02;13.00;99.90
16392;DHT22;8305;-33.882;151.134;2023-06-14T10:57:34;12.90;99.90
16392;DHT22;8305;-33.882;151.134;2023-06-14T11:00:06;12.90;99.90
16392;DHT22;8305;-33.882;151.134;2023-06-14T11:06:13;12.70;99.90
16392;DHT22;8305;-33.882;151.134;2023-06-14T11:09:08;12.70;99.90
16392;DHT22;8305;-33.882;151.134;2023-06-14T11:11:44;12.60;99.90
16392;DHT22;8305;-33.882;151.134;2023-06-14T11:14:15;12.50;99.90
16392;DHT22;8305;-33.882;151.134;2023-06-14T11:16:49;12.50;99.90
16392;DHT22;8305;-33.882;151.134;2023-06-14T11:19:21;12.40;99.90
16392;DHT22;8305;-33.882;151.134;2023-06-14T11:21:55;12.40;99.90
16392;DHT22;8305;-33.882;151.134;2023-06-14T11:24:26;12.40;99.90
16392;DHT22;8305;-33.882;151.134;2023-06-14T11:26:57;12.30;99.90
16392;DHT22;8305;-33.882;151.134;2023-06-14T11:29:30;12.30;99.90
16392;DHT22;8305;-33.882;151.134;2023-06-14T11:32:01;12.30;99.90
16392;DHT22;8305;-33.882;151.134;2023-06-14T11:34:32;12.30;99.90
16392;DHT22;8305;-33.882;151.134;2023-06-14T11:37:06;12.30;99.90
16392;DHT22;8305;-33.882;151.134;2023-06-14T11:39:37;12.20;99.90
16392;DHT22;8305;-33.882;151.134;2023-06-14T11:42:15;12.20;99.90
16392;DHT22;8305;-33.882;151.134;2023-06-14T11:44:47;12.30;99.90
16392;DHT22;8305;-33.882;151.134;2023-06-14T11:47:18;12.30;99.90
16392;DHT22;8305;-33.882;151.134;2023-06-14T11:49:49;12.30;99.90
16392;DHT22;8305;-33.882;151.134;2023-06-14T11:52:23;12.30;99.90
16392;DHT22;8305;-33.882;151.134;2023-06-14T11:54:55;12.30;99.90
16392;DHT22;8305;-33.882;151.134;2023-06-14T11:57:27;12.30;99.90
16392;DHT22;8305;-33.882;151.134;2023-06-14T11:59:59;12.30;99.90
16392;DHT22;8305;-33.882;151.134;2023-06-14T12:02:32;12.30;99.90
16392;DHT22;8305;-33.882;151.134;2023-06-14T12:05:06;12.30;99.90
16392;DHT22;8305;-33.882;151.134;2023-06-14T12:07:40;12.20;99.90
16392;DHT22;8305;-33.882;151.134;2023-06-14T12:10:15;12.20;99.90
16392;DHT22;8305;-33.882;151.134;2023-06-14T12:12:46;12.20;99.90
16392;DHT22;8305;-33.882;151.134;2023-06-14T12:15:17;12.20;99.90
16392;DHT22;8305;-33.882;151.134;2023-06-14T12:17:48;12.20;99.90
16392;DHT22;8305;-33.882;151.134;2023-06-14T12:20:20;12.20;99.90
16392;DHT22;8305;-33.882;151.134;2023-06-14T12:22:59;12.10;99.90
16392;DHT22;8305;-33.882;151.134;2023-06-14T12:25:32;12.10;99.90
16392;DHT22;8305;-33.882;151.134;2023-06-14T12:28:06;12.10;99.90
16392;DHT22;8305;-33.882;151.134;2023-06-14T12:30:38;12.10;99.90
16392;DHT22;8305;-33.882;151.134;2023-06-14T12:33:09;12.00;99.90
16392;DHT22;8305;-33.882;151.134;2023-06-14T12:35:40;12.00;99.90
16392;DHT22;8305;-33.882;151.134;2023-06-14T12:38:13;12.00;99.90
16392;DHT22;8305;-33.882;151.134;2023-06-14T12:40:44;11.90;99.90
16392;DHT22;8305;-33.882;151.134;2023-06-14T12:43:16;11.90;99.90
16392;DHT22;8305;-33.882;151.134;2023-06-14T12:45:47;11.90;99.90
16392;DHT22;8305;-33.882;151.134;2023-06-14T12:48:18;11.90;99.90
16392;DHT22;8305;-33.882;151.134;2023-06-14T12:50:50;12.00;99.90
16392;DHT22;8305;-33.882;151.134;2023-06-14T12:53:23;12.00;99.90
16392;DHT22;8305;-33.882;151.134;2023-06-14T12:55:54;12.00;99.90
16392;DHT22;8305;-33.882;151.134;2023-06-14T12:58:25;12.00;99.90
16392;DHT22;8305;-33.882;151.134;2023-06-14T13:00:56;12.00;99.90
16392;DHT22;8305;-33.882;151.134;2023-06-14T13:03:27;12.00;99.90
16392;DHT22;8305;-33.882;151.134;2023-06-14T13:05:59;12.00;99.90
16392;DHT22;8305;-33.882;151.134;2023-06-14T13:08:31;12.10;99.90
16392;DHT22;8305;-33.882;151.134;2023-06-14T13:11:02;12.10;99.90
16392;DHT22;8305;-33.882;151.134;2023-06-14T13:13:34;12.10;99.90
16392;DHT22;8305;-33.882;151.134;2023-06-14T13:16:05;12.10;99.90
16392;DHT22;8305;-33.882;151.134;2023-06-14T13:18:36;12.10;99.90
16392;DHT22;8305;-33.882;151.134;2023-06-14T13:21:07;12.10;99.90
16392;DHT22;8305;-33.882;151.134;2023-06-14T13:23:40;12.10;99.90
16392;DHT22;8305;-33.882;151.134;2023-06-14T13:26:11;12.10;99.90
16392;DHT22;8305;-33.882;151.134;2023-06-14T13:28:43;12.10;99.90
16392;DHT22;8305;-33.882;151.134;2023-06-14T13:31:14;12.00;99.90
16392;DHT22;8305;-33.882;151.134;2023-06-14T13:33:45;12.00;99.90
16392;DHT22;8305;-33.882;151.134;2023-06-14T13:36:15;12.00;99.90
16392;DHT22;8305;-33.882;151.134;2023-06-14T13:38:49;12.00;99.90
16392;DHT22;8305;-33.882;151.134;2023-06-14T13:41:20;11.90;99.90
16392;DHT22;8305;-33.882;151.134;2023-06-14T13:43:52;11.90;99.90
16392;DHT22;8305;-33.882;151.134;2023-06-14T13:46:23;11.90;99.90
16392;DHT22;8305;-33.882;151.134;2023-06-14T13:48:53;11.90;99.90
16392;DHT22;8305;-33.882;151.134;2023-06-14T13:51:25;11.90;99.90
16392;DHT22;8305;-33.882;151.134;2023-06-14T13:53:58;11.90;99.90
16392;DHT22;8305;-33.882;151.134;2023-06-14T13:56:30;11.90;99.90
16392;DHT22;8305;-33.882;151.134;2023-06-14T13:59:01;11.90;99.90
16392;DHT22;8305;-33.882;151.134;2023-06-14T14:01:32;11.80;99.90
16392;DHT22;8305;-33.882;151.134;2023-06-14T14:04:03;11.80;99.90
16392;DHT22;8305;-33.882;151.134;2023-06-14T14:06:34;11.80;99.90
16392;DHT22;8305;-33.882;151.134;2023-06-14T14:09:07;11.80;99.90
16392;DHT22;8305;-33.882;151.134;2023-06-14T14:11:39;11.70;99.90
16392;DHT22;8305;-33.882;151.134;2023-06-14T14:14:10;11.70;99.90
16392;DHT22;8305;-33.882;151.134;2023-06-14T14:16:41;11.70;99.90
16392;DHT22;8305;-33.882;151.134;2023-06-14T14:19:12;11.70;99.90
16392;DHT22;8305;-33.882;151.134;2023-06-14T14:21:43;11.70;99.90
16392;DHT22;8305;-33.882;151.134;2023-06-14T15:01:19;11.30;99.90
16392;DHT22;8305;-33.882;151.134;2023-06-14T15:03:50;11.20;99.90
16392;DHT22;8305;-33.882;151.134;2023-06-14T15:06:21;11.20;99.90
16392;DHT22;8305;-33.882;151.134;2023-06-14T15:08:53;11.10;99.90
16392;DHT22;8305;-33.882;151.134;2023-06-14T15:11:23;11.10;99.90
16392;DHT22;8305;-33.882;151.134;2023-06-14T15:13:55;11.10;99.90
16392;DHT22;8305;-33.882;151.134;2023-06-14T15:16:28;11.10;99.90
16392;DHT22;8305;-33.882;151.134;2023-06-14T15:18:59;11.10;99.90
16392;DHT22;8305;-33.882;151.134;2023-06-14T15:21:30;11.10;99.90
16392;DHT22;8305;-33.882;151.134;2023-06-14T15:24:01;11.10;99.90
16392;DHT22;8305;-33.882;151.134;2023-06-14T15:26:32;11.10;99.90
16392;DHT22;8305;-33.882;151.134;2023-06-14T15:29:03;11.10;99.90
16392;DHT22;8305;-33.882;151.134;2023-06-14T15:31:36;11.00;99.90
16392;DHT22;8305;-33.882;151.134;2023-06-14T15:34:07;11.00;99.90
16392;DHT22;8305;-33.882;151.134;2023-06-14T15:36:38;11.00;99.90
16392;DHT22;8305;-33.882;151.134;2023-06-14T15:39:09;11.00;99.90
16392;DHT22;8305;-33.882;151.134;2023-06-14T15:41:40;11.00;99.90
16392;DHT22;8305;-33.882;151.134;2023-06-14T15:44:11;11.00;99.90
16392;DHT22;8305;-33.882;151.134;2023-06-14T15:46:45;11.00;99.90
16392;DHT22;8305;-33.882;151.134;2023-06-14T15:49:15;11.00;99.90
16392;DHT22;8305;-33.882;151.134;2023-06-14T15:51:46;11.00;99.90
16392;DHT22;8305;-33.882;151.134;2023-06-14T15:54:17;11.00;99.90
16392;DHT22;8305;-33.882;151.134;2023-06-14T15:56:48;11.00;99.90
16392;DHT22;8305;-33.882;151.134;2023-06-14T15:59:19;11.00;99.90
16392;DHT22;8305;-33.882;151.134;2023-06-14T16:01:51;10.90;99.90
16392;DHT22;8305;-33.882;151.134;2023-06-14T16:04:22;10.90;99.90
16392;DHT22;8305;-33.882;151.134;2023-06-14T16:06:53;10.80;99.90
16392;DHT22;8305;-33.882;151.134;2023-06-14T16:09:24;10.80;99.90
16392;DHT22;8305;-33.882;151.134;2023-06-14T16:11:54;10.70;99.90
16392;DHT22;8305;-33.882;151.134;2023-06-14T16:14:25;10.70;99.90